Time;durP1;ratioP1;P1;durP2;ratioP2;P2;SDS_P1;SDS_P2;PMS_P1;PMS_P2;Temp;Humidity;BMP_temperature;BMP_pressure;BME280_temperature;BME280_humidity;BME280_pressure;Samples;Min_cycle;Max_cycle;Signal;HPM_P1;HPM_P2
2023/04/15 00:00:08;;;;;;;6.30;3.63;;;;;;;;;;5078411;28;20175;-80
2023/04/15 00:02:36;;;;;;;3.17;2.50;;;;;;;;;;5078362;28;20199;-80
2023/04/15 00:05:02;;;;;;;5.53;3.20;;;;;;;;;;5078942;28;20170;-80
2023/04/15 00:07:28;;;;;;;10.40;2.95;;;;;;;;;;5078543;28;20178;-80
2023/04/15 00:09:56;;;;;;;6.50;3.45;;;;;;;;;;5078416;28;20204;-80
2023/04/15 00:12:22;;;;;;;4.53;2.85;;;;;;;;;;5078577;28;20282;-80
2023/04/15 00:14:49;;;;;;;10.77;3.90;;;;;;;;;;5078320;28;20176;-79
2023/04/15 00:17:15;;;;;;;4.85;3.17;;;;;;;;;;5095368;28;20210;-80
2023/04/15 00:19:43;;;;;;;7.93;3.50;;;;;;;;;;5096196;28;20205;-79
2023/04/15 00:22:09;;;;;;;4.70;2.97;;;;;;;;;;5078729;28;20233;-80
2023/04/15 00:24:35;;;;;;;4.80;2.53;;;;;;;;;;5077972;28;20184;-79
2023/04/15 00:27:02;;;;;;;4.53;3.15;;;;;;;;;;5061505;28;20187;-80
2023/04/15 00:29:29;;;;;;;8.60;4.05;;;;;;;;;;5095683;28;20209;-79
2023/04/15 00:31:55;;;;;;;4.97;3.17;;;;;;;;;;5078786;28;20196;-79
2023/04/15 00:34:22;;;;;;;10.52;3.17;;;;;;;;;;5096541;28;20176;-79
2023/04/15 00:36:48;;;;;;;10.90;3.70;;;;;;;;;;5061620;28;20182;-80
2023/04/15 00:39:15;;;;;;;5.35;2.42;;;;;;;;;;5095786;28;20177;-80
2023/04/15 00:41:41;;;;;;;6.50;3.30;;;;;;;;;;5096009;28;20261;-80
2023/04/15 00:44:08;;;;;;;7.68;3.00;;;;;;;;;;5078032;28;20282;-80
2023/04/15 00:46:38;;;;;;;6.72;2.72;;;;;;;;;;5077595;28;20180;-80
2023/04/15 00:49:04;;;;;;;4.03;3.00;;;;;;;;;;5095118;28;20564;-79
2023/04/15 00:51:32;;;;;;;6.78;3.88;;;;;;;;;;5095667;28;20160;-80
2023/04/15 00:53:58;;;;;;;5.93;3.25;;;;;;;;;;5096434;28;20624;-80
2023/04/15 00:56:25;;;;;;;10.77;3.22;;;;;;;;;;5077181;28;20183;-80
2023/04/15 00:58:51;;;;;;;5.65;3.28;;;;;;;;;;5077876;28;20182;-78
2023/04/15 01:01:21;;;;;;;6.75;3.53;;;;;;;;;;5095589;28;20206;-79
2023/04/15 01:03:49;;;;;;;7.55;3.60;;;;;;;;;;5095677;28;20168;-79
2023/04/15 01:06:15;;;;;;;11.05;3.65;;;;;;;;;;5095582;28;20179;-82
2023/04/15 01:08:41;;;;;;;7.03;3.78;;;;;;;;;;5077435;28;20182;-79
2023/04/15 01:11:10;;;;;;;5.20;3.20;;;;;;;;;;5095403;28;20188;-79
2023/04/15 01:13:36;;;;;;;6.05;3.00;;;;;;;;;;5077242;28;20227;-79
2023/04/15 01:16:02;;;;;;;10.20;3.50;;;;;;;;;;5061544;28;20207;-79
2023/04/15 01:18:29;;;;;;;7.45;3.00;;;;;;;;;;5095833;28;20176;-79
2023/04/15 01:20:55;;;;;;;8.10;3.25;;;;;;;;;;5095354;28;20174;-79
2023/04/15 01:23:25;;;;;;;4.93;2.60;;;;;;;;;;5095026;28;20183;-79
2023/04/15 01:25:51;;;;;;;4.22;2.80;;;;;;;;;;5095403;28;20164;-79
2023/04/15 01:28:17;;;;;;;3.85;2.40;;;;;;;;;;5077901;28;20174;-80
2023/04/15 01:30:43;;;;;;;3.45;2.72;;;;;;;;;;5080918;28;20183;-79
2023/04/15 01:33:10;;;;;;;6.30;2.72;;;;;;;;;;5081918;28;20208;-79
2023/04/15 01:35:36;;;;;;;6.65;2.60;;;;;;;;;;5081573;28;20949;-79
2023/04/15 01:38:06;;;;;;;5.30;3.20;;;;;;;;;;5099386;28;20259;-79
2023/04/15 01:40:32;;;;;;;5.13;2.60;;;;;;;;;;5099449;28;20182;-79
2023/04/15 01:42:58;;;;;;;7.78;2.92;;;;;;;;;;5081692;28;20253;-79
2023/04/15 01:45:25;;;;;;;6.47;3.40;;;;;;;;;;5099654;28;20237;-79
2023/04/15 01:47:51;;;;;;;8.30;3.70;;;;;;;;;;5081393;28;20195;-79
2023/04/15 01:50:17;;;;;;;6.50;2.92;;;;;;;;;;5099398;28;20316;-83
2023/04/15 01:52:44;;;;;;;6.68;3.10;;;;;;;;;;5099673;28;20652;-79
2023/04/15 01:55:10;;;;;;;3.05;2.70;;;;;;;;;;5081486;28;20621;-79
2023/04/15 01:57:36;;;;;;;4.75;3.00;;;;;;;;;;5099189;28;20178;-79
2023/04/15 02:00:02;;;;;;;9.05;3.10;;;;;;;;;;5081396;28;20546;-79
2023/04/15 02:02:29;;;;;;;4.53;2.70;;;;;;;;;;5098871;28;20180;-79
2023/04/15 02:04:55;;;;;;;4.50;2.45;;;;;;;;;;5099291;28;20204;-79
2023/04/15 02:07:21;;;;;;;5.40;2.58;;;;;;;;;;5081210;28;20164;-79
2023/04/15 02:09:47;;;;;;;7.07;3.45;;;;;;;;;;5098882;28;20173;-79
2023/04/15 02:12:13;;;;;;;3.88;2.55;;;;;;;;;;5081365;28;20538;-79
2023/04/15 02:14:40;;;;;;;5.13;2.97;;;;;;;;;;5098623;28;20194;-79
2023/04/15 02:17:07;;;;;;;4.80;3.17;;;;;;;;;;5064126;28;20610;-79
2023/04/15 02:19:36;;;;;;;4.75;2.70;;;;;;;;;;5099215;28;20612;-79
2023/04/15 02:22:02;;;;;;;6.00;2.83;;;;;;;;;;5080500;28;20184;-79
2023/04/15 02:24:28;;;;;;;8.75;3.47;;;;;;;;;;5080920;28;20536;-79
2023/04/15 02:26:54;;;;;;;7.47;3.45;;;;;;;;;;5099003;28;20179;-79
2023/04/15 02:29:22;;;;;;;5.65;3.95;;;;;;;;;;5098782;28;20172;-80
2023/04/15 02:31:48;;;;;;;4.95;3.00;;;;;;;;;;5080858;28;20184;-79
2023/04/15 02:34:14;;;;;;;8.82;3.45;;;;;;;;;;5064038;28;20180;-79
2023/04/15 02:36:40;;;;;;;3.30;2.67;;;;;;;;;;5063638;28;20300;-79
2023/04/15 02:39:06;;;;;;;5.97;3.28;;;;;;;;;;5081111;28;20199;-79
2023/04/15 02:41:32;;;;;;;4.05;3.00;;;;;;;;;;5079975;28;20180;-79
2023/04/15 02:43:58;;;;;;;8.75;2.95;;;;;;;;;;5099179;28;20274;-79
2023/04/15 02:46:24;;;;;;;11.60;4.10;;;;;;;;;;5098820;28;20566;-77
2023/04/15 02:48:52;;;;;;;4.35;3.10;;;;;;;;;;5080120;28;20272;-79
2023/04/15 02:51:19;;;;;;;6.70;3.80;;;;;;;;;;5064820;28;20179;-80
2023/04/15 02:53:45;;;;;;;5.93;3.20;;;;;;;;;;5098631;28;20188;-79
2023/04/15 02:56:11;;;;;;;5.40;3.83;;;;;;;;;;5080921;28;20520;-79
2023/04/15 02:58:37;;;;;;;4.53;3.15;;;;;;;;;;5098135;28;20217;-79
2023/04/15 03:01:03;;;;;;;4.05;2.75;;;;;;;;;;5098568;28;20219;-78
2023/04/15 03:03:30;;;;;;;3.80;3.42;;;;;;;;;;5080880;28;20176;-79
2023/04/15 03:05:56;;;;;;;4.93;3.50;;;;;;;;;;5080656;28;20171;-79
2023/04/15 03:08:22;;;;;;;11.32;3.50;;;;;;;;;;5098477;28;20259;-85
2023/04/15 03:10:51;;;;;;;7.38;4.25;;;;;;;;;;5098575;28;20215;-79
2023/04/15 03:13:17;;;;;;;5.22;3.00;;;;;;;;;;5097798;28;20252;-78
2023/04/15 03:15:43;;;;;;;5.95;3.60;;;;;;;;;;5098514;28;20186;-79
2023/04/15 03:18:09;;;;;;;5.95;2.92;;;;;;;;;;5098262;28;20249;-78
2023/04/15 03:20:35;;;;;;;10.27;3.63;;;;;;;;;;5098200;28;20637;-79
2023/04/15 03:23:01;;;;;;;8.77;2.90;;;;;;;;;;5080020;28;20271;-79
2023/04/15 03:25:27;;;;;;;4.82;3.20;;;;;;;;;;5079839;28;20176;-78
2023/04/15 03:27:53;;;;;;;10.23;4.20;;;;;;;;;;5079927;28;20184;-79
2023/04/15 03:30:19;;;;;;;5.97;3.10;;;;;;;;;;5080572;28;20529;-79
2023/04/15 03:32:45;;;;;;;5.30;3.25;;;;;;;;;;5097914;28;20295;-78
2023/04/15 03:35:11;;;;;;;7.00;3.55;;;;;;;;;;5097737;28;20200;-78
2023/04/15 03:37:37;;;;;;;9.30;4.00;;;;;;;;;;5079860;28;20179;-79
2023/04/15 03:40:04;;;;;;;8.82;3.85;;;;;;;;;;5063177;28;20214;-80
2023/04/15 03:42:30;;;;;;;8.77;4.15;;;;;;;;;;5079653;28;20663;-79
2023/04/15 03:44:56;;;;;;;10.98;4.72;;;;;;;;;;5097980;28;20176;-79
2023/04/15 03:47:22;;;;;;;8.35;3.88;;;;;;;;;;5079664;28;20165;-78
2023/04/15 03:49:48;;;;;;;8.68;4.00;;;;;;;;;;5096926;28;20232;-79
2023/04/15 03:52:14;;;;;;;5.30;4.10;;;;;;;;;;5078888;28;20211;-79
2023/04/15 03:54:40;;;;;;;8.20;3.85;;;;;;;;;;5097830;28;20179;-78
2023/04/15 03:57:06;;;;;;;12.70;4.45;;;;;;;;;;5079353;28;20183;-78
2023/04/15 03:59:32;;;;;;;9.73;3.58;;;;;;;;;;5079297;28;20175;-79
2023/04/15 04:01:59;;;;;;;6.78;3.80;;;;;;;;;;5097175;28;20195;-78
2023/04/15 04:04:25;;;;;;;4.82;3.53;;;;;;;;;;5097413;28;20305;-84
2023/04/15 04:06:51;;;;;;;6.88;3.72;;;;;;;;;;5079161;28;20703;-78
2023/04/15 04:09:17;;;;;;;10.48;4.07;;;;;;;;;;5079197;28;20643;-78
2023/04/15 04:11:44;;;;;;;4.78;4.20;;;;;;;;;;5079040;28;20180;-79
2023/04/15 04:14:10;;;;;;;8.35;4.05;;;;;;;;;;5097346;28;20643;-78
2023/04/15 04:16:36;;;;;;;7.45;4.28;;;;;;;;;;5079145;28;20635;-77
2023/04/15 04:19:02;;;;;;;6.50;4.10;;;;;;;;;;5079089;28;20174;-78
2023/04/15 04:21:28;;;;;;;10.77;4.43;;;;;;;;;;5097430;28;20171;-79
2023/04/15 04:23:55;;;;;;;9.60;4.55;;;;;;;;;;5062412;28;20543;-78
2023/04/15 04:26:21;;;;;;;6.53;3.72;;;;;;;;;;5079679;28;20173;-78
2023/04/15 04:28:47;;;;;;;6.53;3.90;;;;;;;;;;5097227;28;20173;-79
2023/04/15 04:31:13;;;;;;;7.80;4.15;;;;;;;;;;5097160;28;20172;-79
2023/04/15 04:33:40;;;;;;;9.05;4.63;;;;;;;;;;5079276;28;20685;-79
2023/04/15 04:36:06;;;;;;;4.75;3.95;;;;;;;;;;5096938;28;20179;-78
2023/04/15 04:38:32;;;;;;;9.18;4.57;;;;;;;;;;5078792;28;20180;-79
2023/04/15 04:40:58;;;;;;;7.15;4.30;;;;;;;;;;5097029;28;20187;-78
2023/04/15 04:43:24;;;;;;;8.25;4.47;;;;;;;;;;5096857;28;20190;-77
2023/04/15 04:45:50;;;;;;;10.65;4.07;;;;;;;;;;5096532;28;20180;-79
2023/04/15 04:48:17;;;;;;;6.85;4.22;;;;;;;;;;5096596;28;20646;-78
2023/04/15 04:50:45;;;;;;;8.88;5.10;;;;;;;;;;5078122;28;20184;-78
2023/04/15 04:53:11;;;;;;;6.57;4.10;;;;;;;;;;5096441;28;20204;-78
2023/04/15 04:55:37;;;;;;;7.85;4.82;;;;;;;;;;5096533;28;20231;-79
2023/04/15 04:58:04;;;;;;;5.60;4.47;;;;;;;;;;5096565;28;20180;-78
2023/04/15 05:00:30;;;;;;;7.80;4.50;;;;;;;;;;5077962;28;20180;-80
2023/04/15 05:02:56;;;;;;;8.88;4.90;;;;;;;;;;5096204;28;20666;-78
2023/04/15 05:05:22;;;;;;;4.80;4.30;;;;;;;;;;5061904;28;20705;-78
2023/04/15 05:07:49;;;;;;;13.85;5.00;;;;;;;;;;5096308;28;20535;-78
2023/04/15 05:10:16;;;;;;;8.73;4.50;;;;;;;;;;5096316;28;20222;-78
2023/04/15 05:12:43;;;;;;;7.50;5.10;;;;;;;;;;5078797;28;20195;-78
2023/04/15 05:15:09;;;;;;;7.25;4.95;;;;;;;;;;5078469;28;20179;-78
2023/04/15 05:17:35;;;;;;;6.55;4.55;;;;;;;;;;5096284;28;20225;-78
2023/04/15 05:20:02;;;;;;;7.80;4.70;;;;;;;;;;5078499;28;20644;-78
2023/04/15 05:22:28;;;;;;;8.35;5.35;;;;;;;;;;5078354;28;20540;-78
2023/04/15 05:24:54;;;;;;;7.70;5.55;;;;;;;;;;5078377;28;20168;-78
2023/04/15 05:27:21;;;;;;;10.60;6.00;;;;;;;;;;5078324;28;20179;-78
2023/04/15 05:29:48;;;;;;;11.55;5.88;;;;;;;;;;5078879;28;20173;-78
2023/04/15 05:32:14;;;;;;;7.45;5.78;;;;;;;;;;5078328;28;20566;-78
2023/04/15 05:34:40;;;;;;;9.98;5.93;;;;;;;;;;5077691;28;20176;-78
2023/04/15 05:37:06;;;;;;;6.57;5.78;;;;;;;;;;5096678;28;20183;-78
2023/04/15 05:39:32;;;;;;;8.95;5.97;;;;;;;;;;5077770;28;20186;-78
2023/04/15 05:41:59;;;;;;;13.93;6.53;;;;;;;;;;5095999;28;20308;-78
2023/04/15 05:44:25;;;;;;;12.27;6.63;;;;;;;;;;5096068;28;20186;-77
2023/04/15 05:46:52;;;;;;;9.57;6.45;;;;;;;;;;5077933;28;20215;-78
2023/04/15 05:49:18;;;;;;;8.43;6.40;;;;;;;;;;5095922;28;20231;-78
2023/04/15 05:51:44;;;;;;;12.27;6.38;;;;;;;;;;5078048;28;20180;-77
2023/04/15 05:54:10;;;;;;;9.70;5.55;;;;;;;;;;5096177;28;20172;-78
2023/04/15 05:56:36;;;;;;;12.88;6.85;;;;;;;;;;5095754;28;20180;-77
2023/04/15 05:59:02;;;;;;;8.90;6.63;;;;;;;;;;5076921;28;20709;-78
2023/04/15 06:01:29;;;;;;;10.20;6.38;;;;;;;;;;5083830;28;20212;-78
2023/04/15 06:03:55;;;;;;;7.40;6.15;;;;;;;;;;5074920;28;20174;-78
2023/04/15 06:06:21;;;;;;;13.90;9.45;;;;;;;;;;5075989;28;20618;-78
2023/04/15 06:08:47;;;;;;;13.02;7.85;;;;;;;;;;5075363;28;20170;-78
2023/04/15 06:11:13;;;;;;;14.05;7.82;;;;;;;;;;5057567;28;20181;-79
2023/04/15 06:13:39;;;;;;;7.93;5.40;;;;;;;;;;5075104;28;20197;-78
2023/04/15 06:16:06;;;;;;;13.05;7.93;;;;;;;;;;5059035;28;20719;-78
2023/04/15 06:18:32;;;;;;;8.43;6.60;;;;;;;;;;5078938;28;20216;-78
2023/04/15 06:20:58;;;;;;;8.27;5.78;;;;;;;;;;5078497;28;20212;-79
2023/04/15 06:23:25;;;;;;;10.93;7.10;;;;;;;;;;5078525;28;20668;-78
2023/04/15 06:25:51;;;;;;;8.85;7.25;;;;;;;;;;5078159;28;20177;-78
2023/04/15 06:28:17;;;;;;;13.23;6.80;;;;;;;;;;5079319;28;20187;-78
2023/04/15 06:30:43;;;;;;;9.18;6.90;;;;;;;;;;5078536;28;20203;-78
2023/04/15 06:33:09;;;;;;;12.82;7.75;;;;;;;;;;5060443;28;20200;-79
2023/04/15 06:35:35;;;;;;;8.43;6.22;;;;;;;;;;5078781;28;20532;-79
2023/04/15 06:38:01;;;;;;;9.68;6.15;;;;;;;;;;5061494;28;20321;-78
2023/04/15 06:40:27;;;;;;;12.85;6.18;;;;;;;;;;5060515;28;20308;-78
2023/04/15 06:42:54;;;;;;;11.20;6.30;;;;;;;;;;5060270;28;20715;-79
2023/04/15 06:45:20;;;;;;;6.03;5.32;;;;;;;;;;5060393;28;20207;-78
2023/04/15 06:47:46;;;;;;;7.93;5.95;;;;;;;;;;5060170;28;20170;-78
2023/04/15 06:50:13;;;;;;;9.73;5.80;;;;;;;;;;5060336;28;20681;-78
2023/04/15 06:52:39;;;;;;;6.20;5.53;;;;;;;;;;5077818;28;20193;-79
2023/04/15 06:55:06;;;;;;;7.28;4.90;;;;;;;;;;5077748;28;20193;-79
2023/04/15 06:57:32;;;;;;;6.88;5.70;;;;;;;;;;5077224;28;20184;-78
2023/04/15 06:59:59;;;;;;;10.90;6.95;;;;;;;;;;5089030;28;20189;-78
2023/04/15 07:02:26;;;;;;;6.75;5.95;;;;;;;;;;5079561;28;20204;-78
2023/04/15 07:04:52;;;;;;;6.43;5.72;;;;;;;;;;5080748;28;20200;-78
2023/04/15 07:07:18;;;;;;;10.63;6.75;;;;;;;;;;5098522;28;20187;-78
2023/04/15 07:09:44;;;;;;;7.72;5.85;;;;;;;;;;5098188;28;20225;-78
2023/04/15 07:12:10;;;;;;;9.32;5.40;;;;;;;;;;5097744;28;20231;-78
2023/04/15 07:14:36;;;;;;;10.50;5.43;;;;;;;;;;5079430;28;20655;-83
2023/04/15 07:17:02;;;;;;;8.40;5.65;;;;;;;;;;5098028;28;20198;-79
2023/04/15 07:19:28;;;;;;;10.23;5.20;;;;;;;;;;5083496;28;20223;-76
2023/04/15 07:21:55;;;;;;;6.93;5.70;;;;;;;;;;5059785;28;20165;-84
2023/04/15 07:24:25;;;;;;;7.13;5.97;;;;;;;;;;5059813;28;20177;-78
2023/04/15 07:26:51;;;;;;;10.77;6.05;;;;;;;;;;5043540;28;20184;-79
2023/04/15 07:29:17;;;;;;;8.88;6.20;;;;;;;;;;5077619;28;20165;-79
2023/04/15 07:31:43;;;;;;;12.40;5.85;;;;;;;;;;5077565;28;20638;-79
2023/04/15 07:34:09;;;;;;;8.40;6.22;;;;;;;;;;5043787;28;20592;-79
2023/04/15 07:36:35;;;;;;;10.25;7.75;;;;;;;;;;5042512;28;20181;-79
2023/04/15 07:39:02;;;;;;;12.40;8.55;;;;;;;;;;5077226;28;20161;-79
2023/04/15 07:41:29;;;;;;;13.60;8.25;;;;;;;;;;5077294;28;20181;-79
2023/04/15 07:43:55;;;;;;;10.80;8.23;;;;;;;;;;5059376;28;20181;-80
2023/04/15 07:46:23;;;;;;;10.55;7.47;;;;;;;;;;5077312;28;20205;-79
2023/04/15 07:48:49;;;;;;;9.40;7.95;;;;;;;;;;5077306;28;20255;-79
2023/04/15 07:51:16;;;;;;;9.13;7.63;;;;;;;;;;5059077;28;20200;-80
2023/04/15 07:53:43;;;;;;;8.68;7.57;;;;;;;;;;5058655;28;20224;-79
2023/04/15 07:56:10;;;;;;;11.18;7.93;;;;;;;;;;5059597;28;20716;-80
2023/04/15 07:58:36;;;;;;;9.80;8.20;;;;;;;;;;5077148;28;20613;-80
2023/04/15 08:01:02;;;;;;;8.95;7.30;;;;;;;;;;5058391;28;20177;-78
2023/04/15 08:03:28;;;;;;;9.63;6.45;;;;;;;;;;5076922;28;20172;-79
2023/04/15 08:05:54;;;;;;;8.88;6.88;;;;;;;;;;5076687;28;20599;-79
2023/04/15 08:08:21;;;;;;;9.70;7.03;;;;;;;;;;5059017;28;20280;-81
2023/04/15 08:10:47;;;;;;;9.97;8.10;;;;;;;;;;5058202;28;20415;-81
2023/04/15 08:13:13;;;;;;;9.90;7.77;;;;;;;;;;5058584;28;20434;-81
2023/04/15 08:15:39;;;;;;;11.30;8.50;;;;;;;;;;5058860;28;20421;-80
2023/04/15 08:18:06;;;;;;;9.57;8.50;;;;;;;;;;5076225;28;20406;-80
2023/04/15 08:20:32;;;;;;;10.93;8.50;;;;;;;;;;5058542;28;20915;-81
2023/04/15 08:22:59;;;;;;;13.53;8.80;;;;;;;;;;5058523;28;20465;-81
2023/04/15 08:25:26;;;;;;;11.53;8.50;;;;;;;;;;5075702;28;20403;-81
2023/04/15 08:27:52;;;;;;;15.60;10.00;;;;;;;;;;5041295;28;20414;-81
2023/04/15 08:30:18;;;;;;;12.00;8.00;;;;;;;;;;5076283;28;20389;-81
2023/04/15 08:32:47;;;;;;;9.87;7.77;;;;;;;;;;5076111;28;20488;-82
2023/04/15 08:35:14;;;;;;;8.70;7.80;;;;;;;;;;5076537;28;20422;-81
2023/04/15 08:37:40;;;;;;;9.20;7.97;;;;;;;;;;5064642;28;20431;-82
2023/04/15 08:40:07;;;;;;;9.13;6.27;;;;;;;;;;5041435;28;20406;-81
2023/04/15 08:42:37;;;;;;;5.90;5.17;;;;;;;;;;5049848;28;20494;-81
2023/04/15 08:45:04;;;;;;;7.30;5.77;;;;;;;;;;5071102;28;20726;-81
2023/04/15 08:47:31;;;;;;;6.17;5.57;;;;;;;;;;5040473;28;20423;-81
2023/04/15 08:49:58;;;;;;;5.23;4.20;;;;;;;;;;5054845;28;20455;-81
2023/04/15 08:52:25;;;;;;;3.90;3.43;;;;;;;;;;5055416;28;20434;-82
2023/04/15 08:54:52;;;;;;;4.07;3.00;;;;;;;;;;5017881;28;20759;-81
2023/04/15 08:57:18;;;;;;;4.17;3.77;;;;;;;;;;5017955;28;20421;-82
2023/04/15 08:59:44;;;;;;;3.70;3.20;;;;;;;;;;5035952;28;20391;-81
2023/04/15 09:02:12;;;;;;;4.80;3.80;;;;;;;;;;5035248;28;20383;-81
2023/04/15 09:04:38;;;;;;;5.63;3.33;;;;;;;;;;5001823;28;20935;-81
2023/04/15 09:07:05;;;;;;;4.83;3.00;;;;;;;;;;5017116;28;20408;-81
2023/04/15 09:09:31;;;;;;;3.10;2.80;;;;;;;;;;5017667;28;20380;-80
2023/04/15 09:11:57;;;;;;;3.00;2.80;;;;;;;;;;5017190;28;20506;-80
2023/04/15 09:14:23;;;;;;;3.10;2.57;;;;;;;;;;5001771;28;20761;-81
2023/04/15 09:16:56;;;;;;;3.37;2.80;;;;;;;;;;5034834;28;20436;-82
2023/04/15 09:19:23;;;;;;;5.37;2.53;;;;;;;;;;5017593;28;20391;-81
2023/04/15 09:21:50;;;;;;;2.77;2.50;;;;;;;;;;5001526;28;20391;-81
2023/04/15 09:24:16;;;;;;;2.70;2.20;;;;;;;;;;5035817;28;20404;-81
2023/04/15 09:26:42;;;;;;;2.70;2.50;;;;;;;;;;5017748;28;20959;-81
2023/04/15 09:29:14;;;;;;;4.87;3.20;;;;;;;;;;5017967;28;20405;-80
2023/04/15 09:31:42;;;;;;;3.57;2.83;;;;;;;;;;5035610;28;20955;-79
2023/04/15 09:34:08;;;;;;;2.50;2.30;;;;;;;;;;5001524;28;20636;-80
2023/04/15 09:36:54;;;;;;;5.13;3.20;;;;;;;;;;5001793;28;20406;-81
2023/04/15 09:39:20;;;;;;;2.67;2.47;;;;;;;;;;5017744;28;21026;-80
2023/04/15 09:41:46;;;;;;;3.43;2.13;;;;;;;;;;5017691;28;20395;-82
2023/04/15 09:44:25;;;;;;;3.40;2.50;;;;;;;;;;5017239;28;20398;-81
2023/04/15 09:46:51;;;;;;;5.40;2.60;;;;;;;;;;5016553;28;20409;-81
2023/04/15 09:49:18;;;;;;;4.30;2.90;;;;;;;;;;5044232;28;20778;-81
2023/04/15 09:51:44;;;;;;;4.40;3.30;;;;;;;;;;5040758;28;20803;-82
2023/04/15 09:54:10;;;;;;;8.33;3.33;;;;;;;;;;5057938;28;20822;-81
2023/04/15 09:56:41;;;;;;;6.47;3.63;;;;;;;;;;5041010;28;20923;-80
2023/04/15 09:59:07;;;;;;;3.83;3.40;;;;;;;;;;5058366;28;20375;-81
2023/04/15 10:01:33;;;;;;;3.73;3.43;;;;;;;;;;5024275;28;20419;-80
2023/04/15 10:04:01;;;;;;;5.87;3.57;;;;;;;;;;5058874;28;20387;-81
2023/04/15 10:06:27;;;;;;;3.73;3.43;;;;;;;;;;5058822;28;20447;-81
2023/04/15 10:08:53;;;;;;;4.40;3.63;;;;;;;;;;5040421;28;20394;-81
2023/04/15 10:11:22;;;;;;;3.83;3.53;;;;;;;;;;5058140;28;20789;-81
2023/04/15 10:13:49;;;;;;;4.13;3.70;;;;;;;;;;5040350;28;20482;-84
2023/04/15 10:16:15;;;;;;;4.40;2.90;;;;;;;;;;5040357;28;20394;-83
2023/04/15 10:18:45;;;;;;;3.43;3.13;;;;;;;;;;5039632;28;20394;-83
2023/04/15 10:21:17;;;;;;;3.67;3.00;;;;;;;;;;5022865;28;20420;-84
2023/04/15 10:23:43;;;;;;;3.63;3.33;;;;;;;;;;5038981;28;20477;-83
2023/04/15 10:26:11;;;;;;;5.03;3.37;;;;;;;;;;5039019;28;20420;-83
2023/04/15 10:28:37;;;;;;;4.60;3.90;;;;;;;;;;5039426;28;20481;-82
2023/04/15 10:31:04;;;;;;;4.93;4.30;;;;;;;;;;5038603;28;20431;-82
2023/04/15 10:33:30;;;;;;;7.23;3.60;;;;;;;;;;5057136;28;20447;-84
2023/04/15 10:35:57;;;;;;;4.83;3.20;;;;;;;;;;5039008;28;20770;-84
2023/04/15 10:38:32;;;;;;;2.80;1.87;;;;;;;;;;5057106;28;20386;-83
2023/04/15 10:41:17;;;;;;;2.50;1.53;;;;;;;;;;5038340;28;20462;-83
2023/04/15 10:43:54;;;;;;;2.23;1.67;;;;;;;;;;5056688;28;20804;-84
2023/04/15 10:46:22;;;;;;;2.43;1.80;;;;;;;;;;5039682;28;20424;-86
2023/04/15 10:48:49;;;;;;;2.20;2.00;;;;;;;;;;5035465;28;20446;-83
2023/04/15 10:51:15;;;;;;;3.10;2.00;;;;;;;;;;5003204;28;20888;-85
2023/04/15 10:53:42;;;;;;;2.53;2.20;;;;;;;;;;5036271;28;20477;-85
2023/04/15 10:56:08;;;;;;;3.20;2.90;;;;;;;;;;5018869;28;20417;-83
2023/04/15 10:58:41;;;;;;;3.93;3.47;;;;;;;;;;5019171;28;20452;-80
2023/04/15 11:01:08;;;;;;;4.13;3.17;;;;;;;;;;5018494;28;20475;-80
2023/04/15 11:03:37;;;;;;;4.43;3.70;;;;;;;;;;5019248;28;20498;-81
2023/04/15 11:06:05;;;;;;;4.27;3.77;;;;;;;;;;5019351;28;20487;-80
2023/04/15 11:08:49;;;;;;;6.00;3.80;;;;;;;;;;5036842;28;20405;-81
2023/04/15 11:11:15;;;;;;;7.93;3.77;;;;;;;;;;5019152;28;20417;-81
2023/04/15 11:13:48;;;;;;;5.10;3.60;;;;;;;;;;5019662;28;20784;-80
2023/04/15 11:16:14;;;;;;;3.97;3.57;;;;;;;;;;5037271;28;20417;-80
2023/04/15 11:18:40;;;;;;;5.60;3.53;;;;;;;;;;5019063;28;20752;-80
2023/04/15 11:21:06;;;;;;;4.60;3.13;;;;;;;;;;5036456;28;20380;-80
2023/04/15 11:23:37;;;;;;;8.17;4.07;;;;;;;;;;5036766;28;20380;-81
2023/04/15 11:26:08;;;;;;;5.80;3.90;;;;;;;;;;5036462;28;20397;-80
2023/04/15 11:28:34;;;;;;;7.40;4.50;;;;;;;;;;5019217;28;20935;-81
2023/04/15 11:31:27;;;;;;;6.53;3.70;;;;;;;;;;5019480;28;20550;-81
2023/04/15 11:34:01;;;;;;;3.80;3.17;;;;;;;;;;5015659;28;20463;-81
2023/04/15 11:36:27;;;;;;;5.83;2.47;;;;;;;;;;5020672;28;20891;-81
2023/04/15 11:38:53;;;;;;;3.93;2.53;;;;;;;;;;5046804;28;20379;-81
2023/04/15 11:41:23;;;;;;;3.30;2.10;;;;;;;;;;5055081;28;20425;-80
2023/04/15 11:43:49;;;;;;;2.70;1.80;;;;;;;;;;5075763;28;20406;-81
2023/04/15 11:46:16;;;;;;;3.13;2.73;;;;;;;;;;5040678;28;20894;-81
2023/04/15 11:48:44;;;;;;;2.30;2.10;;;;;;;;;;5055598;28;20430;-80
2023/04/15 11:51:11;;;;;;;4.90;3.20;;;;;;;;;;5037923;28;20399;-81
2023/04/15 11:53:41;;;;;;;2.40;2.20;;;;;;;;;;5055710;28;20465;-81
2023/04/15 11:56:09;;;;;;;3.40;3.10;;;;;;;;;;5055865;28;20404;-80
2023/04/15 11:58:39;;;;;;;5.70;4.93;;;;;;;;;;5055782;28;20801;-80
2023/04/15 12:01:06;;;;;;;4.67;4.27;;;;;;;;;;5037848;28;20404;-81
2023/04/15 12:03:42;;;;;;;10.40;4.10;;;;;;;;;;5038205;28;20418;-81
2023/04/15 12:06:15;;;;;;;5.10;4.53;;;;;;;;;;5037337;28;20413;-81
2023/04/15 12:09:11;;;;;;;4.10;3.80;;;;;;;;;;5065219;28;20422;-81
2023/04/15 12:11:41;;;;;;;5.90;5.30;;;;;;;;;;5061016;28;20821;-81
2023/04/15 12:14:30;;;;;;;6.60;5.70;;;;;;;;;;5094094;28;20527;-82
2023/04/15 12:17:00;;;;;;;10.23;7.27;;;;;;;;;;5050482;28;20436;-82
2023/04/15 12:19:34;;;;;;;7.07;6.57;;;;;;;;;;5057432;28;20427;-81
2023/04/15 12:22:01;;;;;;;6.70;6.10;;;;;;;;;;5075041;28;20403;-82
2023/04/15 12:24:28;;;;;;;9.17;7.93;;;;;;;;;;5075336;28;20400;-81
2023/04/15 12:26:56;;;;;;;8.77;7.97;;;;;;;;;;5056915;28;20419;-85
2023/04/15 12:29:25;;;;;;;9.30;8.40;;;;;;;;;;5057454;28;20758;-79
2023/04/15 12:31:53;;;;;;;8.83;7.73;;;;;;;;;;5075280;28;20466;-82
2023/04/15 12:34:39;;;;;;;10.73;9.60;;;;;;;;;;5074843;28;20456;-81
2023/04/15 12:37:06;;;;;;;9.43;8.60;;;;;;;;;;5056615;28;20481;-81
2023/04/15 12:39:36;;;;;;;11.67;10.67;;;;;;;;;;5057130;28;20393;-81
2023/04/15 12:42:04;;;;;;;10.33;9.27;;;;;;;;;;5074151;28;20423;-81
2023/04/15 12:44:30;;;;;;;7.80;7.10;;;;;;;;;;5057374;28;20476;-81
2023/04/15 12:47:03;;;;;;;7.47;6.77;;;;;;;;;;5075169;28;20406;-80
2023/04/15 12:49:29;;;;;;;6.03;5.53;;;;;;;;;;5054745;28;20434;-78
2023/04/15 12:51:55;;;;;;;5.90;5.30;;;;;;;;;;5075465;28;20733;-84
2023/04/15 12:54:22;;;;;;;6.53;5.93;;;;;;;;;;5057427;28;20829;-80
2023/04/15 12:56:48;;;;;;;5.43;4.97;;;;;;;;;;5040296;28;20386;-79
2023/04/15 12:59:16;;;;;;;4.30;3.90;;;;;;;;;;5056820;28;20426;-79
2023/04/15 13:01:42;;;;;;;4.53;4.07;;;;;;;;;;5056718;28;20768;-79
2023/04/15 13:04:08;;;;;;;4.50;4.10;;;;;;;;;;5056821;28;20401;-82
2023/04/15 13:06:35;;;;;;;4.30;3.90;;;;;;;;;;5056596;28;20476;-79
2023/04/15 13:09:02;;;;;;;4.00;3.40;;;;;;;;;;5057078;28;20414;-79
2023/04/15 13:11:30;;;;;;;5.70;3.73;;;;;;;;;;5075059;28;20849;-80
2023/04/15 13:13:56;;;;;;;4.23;3.83;;;;;;;;;;5074922;28;20868;-82
2023/04/15 13:16:23;;;;;;;4.93;4.37;;;;;;;;;;5039898;28;20847;-79
2023/04/15 13:18:49;;;;;;;8.43;4.20;;;;;;;;;;5074456;28;20381;-79
2023/04/15 13:21:16;;;;;;;4.93;4.30;;;;;;;;;;5039945;28;20433;-79
2023/04/15 13:23:42;;;;;;;5.20;4.70;;;;;;;;;;5057252;28;20869;-79
2023/04/15 13:26:08;;;;;;;3.90;3.60;;;;;;;;;;5063417;28;20430;-79
2023/04/15 13:28:35;;;;;;;7.83;4.80;;;;;;;;;;5046592;28;20411;-82
2023/04/15 13:31:01;;;;;;;5.43;4.03;;;;;;;;;;5062914;28;20416;-82
2023/04/15 13:33:27;;;;;;;4.57;4.17;;;;;;;;;;5063444;28;20482;-82
2023/04/15 13:35:53;;;;;;;4.90;3.90;;;;;;;;;;5063436;28;20378;-80
2023/04/15 13:38:19;;;;;;;4.63;4.23;;;;;;;;;;5063045;28;20381;-80
2023/04/15 13:40:45;;;;;;;4.03;3.70;;;;;;;;;;5063373;28;20397;-79
2023/04/15 13:43:16;;;;;;;4.80;4.17;;;;;;;;;;5080857;28;20501;-78
2023/04/15 13:45:43;;;;;;;3.90;3.50;;;;;;;;;;5073783;28;20404;-79
2023/04/15 13:48:09;;;;;;;4.50;3.30;;;;;;;;;;5083075;28;20417;-79
2023/04/15 13:50:35;;;;;;;5.43;4.13;;;;;;;;;;5071107;28;20510;-95
2023/04/15 13:53:01;;;;;;;3.77;3.40;;;;;;;;;;5085459;28;20438;-90
2023/04/15 13:55:27;;;;;;;3.43;3.13;;;;;;;;;;5034664;28;20939;-91
2023/04/15 13:57:53;;;;;;;4.20;3.23;;;;;;;;;;5030739;28;20922;-92
2023/04/15 14:00:20;;;;;;;6.23;3.67;;;;;;;;;;5069154;28;20498;-92
2023/04/15 14:02:46;;;;;;;3.50;3.20;;;;;;;;;;5040575;28;20411;-90
2023/04/15 14:05:12;;;;;;;5.10;3.30;;;;;;;;;;5075793;28;20455;-92
2023/04/15 14:07:38;;;;;;;3.40;2.80;;;;;;;;;;5040214;28;20448;-92
2023/04/15 14:10:04;;;;;;;3.90;3.50;;;;;;;;;;5072857;28;20403;-91
2023/04/15 14:12:30;;;;;;;3.50;3.20;;;;;;;;;;5082143;28;20462;-91
2023/04/15 14:14:56;;;;;;;3.63;3.33;;;;;;;;;;5064278;28;20453;-86
2023/04/15 14:17:22;;;;;;;4.13;3.60;;;;;;;;;;5080417;28;20418;-79
2023/04/15 14:19:48;;;;;;;3.30;3.00;;;;;;;;;;5063327;28;20484;-81
2023/04/15 14:22:14;;;;;;;3.60;3.30;;;;;;;;;;5062349;28;20414;-80
2023/04/15 14:24:40;;;;;;;4.30;3.30;;;;;;;;;;5062953;28;20433;-80
2023/04/15 14:27:07;;;;;;;4.00;3.60;;;;;;;;;;5062479;28;20410;-80
2023/04/15 14:29:33;;;;;;;6.03;3.03;;;;;;;;;;5062754;28;20425;-80
2023/04/15 14:31:59;;;;;;;3.73;3.17;;;;;;;;;;5062622;28;20393;-83
2023/04/15 14:34:25;;;;;;;3.87;3.47;;;;;;;;;;5080905;28;21000;-80
2023/04/15 14:36:52;;;;;;;4.20;3.03;;;;;;;;;;5059751;28;20415;-81
2023/04/15 14:39:18;;;;;;;4.60;3.07;;;;;;;;;;5077084;28;20406;-80